Airfield :







YOU CAN JOIN US ON...

 
LOGIN :

Register | Disclaimer

   EN    FR    IT 

 









Legend :    VFR   Marginal VFR   IFR   Intensive IFR   Very Intensive IFR
Visi :
Ceiling :
>= 8 km
>= 3000ft
5 to 8 km
1000 to 3000 ft
1500m to 5 km
500 to 1000 ft
800 to 1500m
200 to 500 ft
< 800m
< 200 ft
Symbols :   Thunderstorms  Fog  Heavy snow  Heavy precipitations  Wind > 20 kt







- Airport Elevation : 1188 ft


KCDA - Caledonia County

CURRENT METAR :
  • 190715Z AUTO 00000KT 10SM CLR M11/M16 A3026 RMK AO2 T11141161

EXPIRED METARs :
  • 190656Z AUTO 00000KT 10SM CLR M12/M16 A3026 RMK AO2 T11181162
  • 190635Z AUTO 26003KT 10SM CLR M10/M16 A3026 RMK AO2 T10961161
  • 190615Z AUTO 00000KT 10SM CLR M10/M16 A3026 RMK AO2 T10991161
  • 190555Z AUTO 23003KT 10SM CLR M10/M15 A3026 RMK AO2 T11001153 11038 21107
  • 190535Z AUTO 00000KT 10SM CLR M11/M15 A3026 RMK AO2 T11071155
  • 190515Z AUTO 00000KT 10SM CLR M09/M15 A3025 RMK AO2 T10921148
  • 190456Z AUTO 00000KT 10SM CLR M08/M16 A3025 RMK AO2 T10801158 410101115
  • 190435Z AUTO 00000KT 10SM CLR M08/M15 A3025 RMK AO2 T10811152

TAF N/A
KZBW FIR / North America



MET'MAP, your aeronautical weather chart ! - Copyright ORBIFLY December 2007 - Disclaimer

ORBIFLY MET'MAP TEAM :

Programming & Development : Alexandra Zaïnal
Concept & Development : Baudouin d'Aumeries
Co-Development & Prog : Marc-Olivier Méhu
Technical & hardware support : Manuel Goepfert

Contact : metmap@orbifly.com




SOURCES & CREDITS :

   NOAA